Time;durP1;ratioP1;P1;durP2;ratioP2;P2;SDS_P1;SDS_P2;PMS_P1;PMS_P2;Temp;Humidity;BMP_temperature;BMP_pressure;BME280_temperature;BME280_humidity;BME280_pressure;Samples;Min_cycle;Max_cycle;Signal;HPM_P1;HPM_P2
2020/12/26 00:00:22;;;;;;;2.05;1.23;;;23.20;33.30;;;;;;5003074;28;20041;-50
2020/12/26 00:02:48;;;;;;;2.53;1.70;;;23.20;33.30;;;;;;5002852;28;20034;-49
2020/12/26 00:05:13;;;;;;;2.80;1.55;;;23.10;33.30;;;;;;5000838;28;20470;-52
2020/12/26 00:07:39;;;;;;;2.85;1.30;;;23.10;33.30;;;;;;5003829;28;20041;-52
2020/12/26 00:10:05;;;;;;;2.75;1.20;;;23.10;33.30;;;;;;5006647;28;20080;-47
2020/12/26 00:12:33;;;;;;;2.05;1.23;;;23.10;33.30;;;;;;5008250;28;20034;-51
2020/12/26 00:15:00;;;;;;;2.33;1.35;;;23.10;33.30;;;;;;5005504;28;20040;-51
2020/12/26 00:17:25;;;;;;;2.55;1.30;;;23.10;33.30;;;;;;5005181;28;20065;-49
2020/12/26 00:19:51;;;;;;;3.75;1.60;;;23.00;33.20;;;;;;5003203;28;20026;-50
2020/12/26 00:22:17;;;;;;;2.83;1.42;;;23.00;33.20;;;;;;5006475;28;20034;-50
2020/12/26 00:24:43;;;;;;;2.60;1.52;;;23.00;33.20;;;;;;5006379;28;20026;-46
2020/12/26 00:27:08;;;;;;;1.77;1.13;;;23.00;33.20;;;;;;5007558;28;20080;-51
2020/12/26 00:29:34;;;;;;;4.20;1.40;;;23.00;33.20;;;;;;4986486;28;20038;-50
2020/12/26 00:32:00;;;;;;;2.35;1.15;;;23.00;33.30;;;;;;5006536;28;20026;-47
2020/12/26 00:34:26;;;;;;;2.80;1.38;;;23.00;33.30;;;;;;5005947;28;20026;-50
2020/12/26 00:36:51;;;;;;;2.13;1.20;;;23.00;33.30;;;;;;4988161;28;20481;-52
2020/12/26 00:39:18;;;;;;;3.28;1.50;;;22.90;33.30;;;;;;5006658;28;20026;-51
2020/12/26 00:41:47;;;;;;;3.17;1.50;;;22.90;33.30;;;;;;5005531;28;20038;-49
2020/12/26 00:44:14;;;;;;;1.63;1.20;;;22.90;33.30;;;;;;5004915;28;20281;-52
2020/12/26 00:46:40;;;;;;;3.13;1.35;;;22.90;33.30;;;;;;5006768;28;20073;-48
2020/12/26 00:49:05;;;;;;;2.72;1.30;;;22.90;33.30;;;;;;5006204;28;20066;-54
2020/12/26 00:51:31;;;;;;;2.88;1.50;;;22.90;33.30;;;;;;5006412;28;20076;-48
2020/12/26 00:53:57;;;;;;;2.72;1.42;;;22.90;33.40;;;;;;5008041;28;20442;-48
2020/12/26 00:56:23;;;;;;;1.40;1.13;;;22.90;33.40;;;;;;4987099;28;20029;-49
2020/12/26 00:58:49;;;;;;;3.15;1.52;;;22.80;33.30;;;;;;5004956;28;20091;-47
2020/12/26 01:01:15;;;;;;;2.38;1.45;;;22.80;33.30;;;;;;4985121;28;20409;-50
2020/12/26 01:04:10;;;;;;;2.17;1.27;;;22.80;33.30;;;;;;4994050;28;20430;-48
2020/12/26 01:06:35;;;;;;;2.47;1.40;;;22.80;33.40;;;;;;5006534;28;20032;-50
2020/12/26 01:09:02;;;;;;;2.58;1.55;;;22.80;33.30;;;;;;5005664;28;20112;-51
2020/12/26 01:11:27;;;;;;;2.65;1.30;;;22.80;33.30;;;;;;4987448;28;20435;-51
2020/12/26 01:13:53;;;;;;;2.20;1.38;;;22.80;33.20;;;;;;5006207;28;20370;-49
2020/12/26 01:16:19;;;;;;;2.03;1.08;;;22.80;33.20;;;;;;5005737;28;20052;-50
2020/12/26 01:18:45;;;;;;;2.67;1.50;;;22.80;33.30;;;;;;5005103;28;20147;-50
2020/12/26 01:21:14;;;;;;;2.45;1.20;;;22.70;33.40;;;;;;5007010;28;20038;-52
2020/12/26 01:23:41;;;;;;;1.63;1.02;;;22.70;33.40;;;;;;5004780;28;20034;-50
2020/12/26 01:26:07;;;;;;;1.85;1.20;;;22.70;33.40;;;;;;5006370;28;20056;-48
2020/12/26 01:28:33;;;;;;;3.17;1.60;;;22.70;33.30;;;;;;5005556;28;20029;-51
2020/12/26 01:30:58;;;;;;;2.30;1.42;;;22.70;33.30;;;;;;5006485;28;20438;-52
2020/12/26 01:33:24;;;;;;;1.90;1.20;;;22.70;33.30;;;;;;5003470;28;20026;-48
2020/12/26 01:35:50;;;;;;;2.25;1.10;;;22.70;33.30;;;;;;5008549;28;20346;-51
2020/12/26 01:38:15;;;;;;;2.22;1.30;;;22.70;33.50;;;;;;5005498;28;20390;-54
2020/12/26 01:40:48;;;;;;;3.92;1.20;;;22.60;33.40;;;;;;5003154;28;20077;-50
2020/12/26 01:43:14;;;;;;;1.77;1.05;;;22.60;33.40;;;;;;5004258;28;20037;-52
2020/12/26 01:45:40;;;;;;;2.25;1.27;;;22.60;33.50;;;;;;4987272;28;20026;-54
2020/12/26 01:48:06;;;;;;;2.38;1.30;;;22.60;33.40;;;;;;5004333;28;20422;-52
2020/12/26 01:50:32;;;;;;;2.40;1.30;;;22.60;33.40;;;;;;5006318;28;20025;-47
2020/12/26 01:52:58;;;;;;;2.03;1.30;;;22.60;33.40;;;;;;5006280;28;20092;-50
2020/12/26 01:55:24;;;;;;;3.05;1.13;;;22.50;33.30;;;;;;5003985;28;20426;-53
2020/12/26 01:57:53;;;;;;;2.30;1.20;;;22.60;33.40;;;;;;5005439;28;20054;-53
2020/12/26 02:00:20;;;;;;;3.28;1.83;;;22.50;33.90;;;;;;5004784;28;20041;-50
2020/12/26 02:02:46;;;;;;;2.05;1.30;;;22.50;33.30;;;;;;5007132;28;20433;-52
2020/12/26 02:05:14;;;;;;;3.13;1.40;;;22.50;33.30;;;;;;5005609;28;20026;-51
2020/12/26 02:07:39;;;;;;;2.38;1.30;;;22.50;33.30;;;;;;5005304;28;20038;-49
2020/12/26 02:10:06;;;;;;;2.45;1.50;;;22.50;33.30;;;;;;5004375;28;20112;-53
2020/12/26 02:12:32;;;;;;;2.42;1.20;;;22.50;33.30;;;;;;5004798;28;20058;-48
2020/12/26 02:14:58;;;;;;;2.13;1.20;;;22.50;33.20;;;;;;5004952;28;20501;-52
2020/12/26 02:17:27;;;;;;;1.88;1.20;;;22.50;33.20;;;;;;5007624;28;20082;-48
2020/12/26 02:19:53;;;;;;;2.25;1.30;;;22.40;33.10;;;;;;5004457;28;20034;-47
2020/12/26 02:22:19;;;;;;;2.17;1.20;;;22.40;33.10;;;;;;5005188;28;20088;-48
2020/12/26 02:24:45;;;;;;;2.40;1.23;;;22.50;33.10;;;;;;5002723;28;20058;-52
2020/12/26 02:27:11;;;;;;;1.98;1.23;;;22.40;33.10;;;;;;5004007;28;20022;-51
2020/12/26 02:29:36;;;;;;;2.10;1.10;;;22.40;33.10;;;;;;5003838;28;20072;-51
2020/12/26 02:32:03;;;;;;;1.65;1.20;;;22.40;33.20;;;;;;5009657;28;20026;-47
2020/12/26 02:34:28;;;;;;;2.70;1.33;;;22.40;33.20;;;;;;5009021;28;20030;-51
2020/12/26 02:36:54;;;;;;;2.25;1.25;;;22.40;33.30;;;;;;5013805;28;20038;-50
2020/12/26 02:39:20;;;;;;;2.30;1.10;;;22.40;33.30;;;;;;5013270;28;20077;-53
2020/12/26 02:41:49;;;;;;;1.73;1.40;;;22.40;33.30;;;;;;5003687;28;20088;-50
2020/12/26 02:44:15;;;;;;;3.00;1.30;;;22.40;33.30;;;;;;5007515;28;20353;-49
2020/12/26 02:46:41;;;;;;;1.92;1.27;;;22.40;33.30;;;;;;5015740;28;20042;-49
2020/12/26 02:49:06;;;;;;;1.83;1.15;;;22.40;33.40;;;;;;5007689;28;20382;-51
2020/12/26 02:51:35;;;;;;;2.10;1.20;;;22.30;33.30;;;;;;5009262;28;20030;-52
2020/12/26 02:54:01;;;;;;;1.77;1.10;;;22.30;33.40;;;;;;4997655;28;20026;-52
2020/12/26 02:56:27;;;;;;;1.63;1.00;;;22.30;33.40;;;;;;5001489;28;20451;-51
2020/12/26 02:58:52;;;;;;;2.17;1.33;;;22.30;33.40;;;;;;5012138;28;20449;-51
2020/12/26 03:01:18;;;;;;;1.75;1.30;;;22.30;33.40;;;;;;5015419;28;20361;-50
2020/12/26 03:03:44;;;;;;;2.53;1.20;;;22.30;33.40;;;;;;5011404;28;20077;-53
2020/12/26 03:06:12;;;;;;;2.28;1.20;;;22.30;33.50;;;;;;5015397;28;20503;-52
2020/12/26 03:08:38;;;;;;;2.30;1.25;;;22.30;33.50;;;;;;5006605;28;20350;-51
2020/12/26 03:11:04;;;;;;;1.85;1.15;;;22.30;33.50;;;;;;4992891;28;20033;-55
2020/12/26 03:13:31;;;;;;;1.98;1.20;;;22.30;33.50;;;;;;5013381;28;20026;-50
2020/12/26 03:16:00;;;;;;;1.75;1.00;;;22.30;33.50;;;;;;4996024;28;20460;-51
2020/12/26 03:18:26;;;;;;;2.20;1.10;;;22.30;33.60;;;;;;4996126;28;20034;-48
2020/12/26 03:20:52;;;;;;;2.47;1.27;;;22.20;33.50;;;;;;5012917;28;20048;-48
2020/12/26 03:23:18;;;;;;;1.52;1.00;;;22.20;33.50;;;;;;4998054;28;20366;-50
2020/12/26 03:25:43;;;;;;;1.85;1.15;;;22.20;33.60;;;;;;5005782;28;20466;-54
2020/12/26 03:28:09;;;;;;;2.38;1.30;;;22.20;33.50;;;;;;4996367;28;20026;-48
2020/12/26 03:30:35;;;;;;;1.58;0.90;;;22.20;33.60;;;;;;4995422;28;20041;-49
2020/12/26 03:33:01;;;;;;;1.63;1.05;;;22.20;33.60;;;;;;4995963;28;20109;-47
2020/12/26 03:35:26;;;;;;;2.28;1.20;;;22.20;33.70;;;;;;4995378;28;20096;-49
2020/12/26 03:37:52;;;;;;;2.13;1.00;;;22.20;33.70;;;;;;5001611;28;20038;-47
2020/12/26 03:40:18;;;;;;;1.73;1.05;;;22.20;33.60;;;;;;4995079;28;20034;-51
2020/12/26 03:42:44;;;;;;;2.05;1.00;;;22.20;33.60;;;;;;5003178;28;20042;-48
2020/12/26 03:45:09;;;;;;;1.38;0.98;;;22.20;33.60;;;;;;5012166;28;20413;-50
2020/12/26 03:47:35;;;;;;;2.28;1.17;;;22.20;33.60;;;;;;5002044;28;20026;-47
2020/12/26 03:50:01;;;;;;;1.98;1.23;;;22.10;33.60;;;;;;5008264;28;20034;-48
2020/12/26 03:52:27;;;;;;;1.67;0.98;;;22.10;33.60;;;;;;5008042;28;20034;-51
2020/12/26 03:54:52;;;;;;;2.05;1.00;;;22.10;33.60;;;;;;5006635;28;20034;-52
2020/12/26 03:57:18;;;;;;;3.05;1.10;;;22.10;33.60;;;;;;5008562;28;20102;-51
2020/12/26 03:59:44;;;;;;;1.95;1.23;;;22.10;33.60;;;;;;5011032;28;20030;-52
2020/12/26 04:02:10;;;;;;;1.83;0.98;;;22.10;33.60;;;;;;5011302;28;20038;-48
2020/12/26 04:04:35;;;;;;;1.58;1.10;;;22.10;33.60;;;;;;5003241;28;20045;-51
2020/12/26 04:07:02;;;;;;;1.42;0.90;;;22.10;33.70;;;;;;5008417;28;20033;-48
2020/12/26 04:09:28;;;;;;;2.30;1.50;;;22.10;33.70;;;;;;5005589;28;20035;-47
2020/12/26 04:11:54;;;;;;;2.35;1.25;;;22.10;33.70;;;;;;5000444;28;20082;-48
2020/12/26 04:14:19;;;;;;;1.38;1.00;;;22.10;33.60;;;;;;5009343;28;20033;-46
2020/12/26 04:16:45;;;;;;;1.63;0.77;;;22.10;33.60;;;;;;4995621;28;20420;-47
2020/12/26 04:19:11;;;;;;;1.15;0.82;;;22.10;33.60;;;;;;5008187;28;20030;-52
2020/12/26 04:21:37;;;;;;;1.75;1.00;;;22.10;33.70;;;;;;4996612;28;20042;-49
2020/12/26 04:24:02;;;;;;;1.67;0.90;;;22.10;33.70;;;;;;4999361;28;20037;-53
2020/12/26 04:26:28;;;;;;;1.77;0.90;;;22.00;33.60;;;;;;5013627;28;20041;-47
2020/12/26 04:28:54;;;;;;;1.23;0.85;;;22.10;33.70;;;;;;4994573;28;20042;-52
2020/12/26 04:31:20;;;;;;;1.58;0.90;;;22.00;33.70;;;;;;5008088;28;20034;-52
2020/12/26 04:33:46;;;;;;;1.60;0.82;;;22.00;33.70;;;;;;4995617;28;20114;-50
2020/12/26 04:36:11;;;;;;;2.55;1.05;;;22.00;33.70;;;;;;5012558;28;20124;-50
2020/12/26 04:38:37;;;;;;;1.58;1.05;;;22.00;34.30;;;;;;4997915;28;20034;-52
2020/12/26 04:41:04;;;;;;;1.45;0.88;;;22.00;33.70;;;;;;5013150;28;20073;-52
2020/12/26 04:43:30;;;;;;;1.58;0.80;;;22.00;33.70;;;;;;5008556;28;20346;-48
2020/12/26 04:46:04;;;;;;;1.10;0.80;;;22.00;33.70;;;;;;5006167;28;20038;-47
2020/12/26 04:48:33;;;;;;;1.33;0.70;;;22.00;33.70;;;;;;4996884;28;20354;-49
2020/12/26 04:51:02;;;;;;;1.00;0.73;;;22.00;33.70;;;;;;5005366;28;20340;-49
2020/12/26 04:53:42;;;;;;;1.65;0.70;;;22.00;33.70;;;;;;5003277;28;20030;-51
2020/12/26 04:56:09;;;;;;;1.20;0.80;;;22.00;33.70;;;;;;5007474;28;20471;-47
2020/12/26 04:58:38;;;;;;;1.67;0.80;;;22.00;33.60;;;;;;5012313;28;20469;-49
2020/12/26 05:01:05;;;;;;;0.93;0.70;;;22.00;33.60;;;;;;5015894;28;20061;-48
2020/12/26 05:03:33;;;;;;;1.23;0.80;;;22.00;33.60;;;;;;5004488;28;20442;-47
2020/12/26 05:06:06;;;;;;;1.25;0.75;;;21.90;33.60;;;;;;5007911;28;20022;-46
2020/12/26 05:08:33;;;;;;;1.15;0.65;;;21.90;33.60;;;;;;5016760;28;20042;-51
2020/12/26 05:10:59;;;;;;;1.08;0.70;;;21.90;33.60;;;;;;5008643;28;20058;-47
2020/12/26 05:13:25;;;;;;;1.10;0.70;;;21.90;33.60;;;;;;5015100;28;20022;-51
2020/12/26 05:15:53;;;;;;;1.67;0.60;;;21.90;33.60;;;;;;5009548;28;20447;-47
2020/12/26 05:18:19;;;;;;;1.40;0.90;;;21.90;33.60;;;;;;5010161;28;20079;-47
2020/12/26 05:20:46;;;;;;;1.27;0.60;;;21.90;33.60;;;;;;5003212;28;20113;-46
2020/12/26 05:23:16;;;;;;;1.80;0.73;;;21.90;33.60;;;;;;5005201;28;20038;-52
2020/12/26 05:25:50;;;;;;;1.63;0.85;;;21.90;33.50;;;;;;4998474;28;20045;-51
2020/12/26 05:28:17;;;;;;;0.88;0.70;;;21.90;33.50;;;;;;5013741;28;20030;-48
2020/12/26 05:30:44;;;;;;;1.35;0.70;;;21.90;33.50;;;;;;4997491;28;20446;-48
2020/12/26 05:33:11;;;;;;;1.00;0.65;;;21.90;33.50;;;;;;5006958;28;20034;-47
2020/12/26 05:35:46;;;;;;;1.25;0.70;;;21.80;33.40;;;;;;4998117;28;20177;-47
2020/12/26 05:38:16;;;;;;;1.15;0.70;;;21.90;33.50;;;;;;4998356;28;20374;-51
2020/12/26 05:40:45;;;;;;;1.70;0.65;;;21.80;33.40;;;;;;5015598;28;20030;-48
2020/12/26 05:43:11;;;;;;;1.15;0.50;;;21.80;33.30;;;;;;5016080;28;20030;-51
2020/12/26 05:45:42;;;;;;;2.05;0.77;;;21.80;33.30;;;;;;5017094;28;20049;-50
2020/12/26 05:48:15;;;;;;;1.35;0.70;;;21.80;33.30;;;;;;5014125;28;20073;-51
2020/12/26 05:50:42;;;;;;;0.90;0.52;;;21.80;33.30;;;;;;5016152;28;20038;-48
2020/12/26 05:53:11;;;;;;;1.05;0.60;;;21.80;33.30;;;;;;5005444;28;20105;-51
2020/12/26 05:55:41;;;;;;;1.10;0.60;;;21.80;33.30;;;;;;5016760;28;20369;-49
2020/12/26 05:58:08;;;;;;;1.15;0.63;;;21.80;33.20;;;;;;5011388;28;20029;-52
2020/12/26 06:00:39;;;;;;;0.93;0.55;;;21.80;33.30;;;;;;5016551;28;20030;-52
2020/12/26 06:03:24;;;;;;;0.90;0.60;;;21.80;33.20;;;;;;5008261;28;21116;-50
2020/12/26 06:05:53;;;;;;;1.55;0.60;;;21.80;33.20;;;;;;5014888;28;20029;-47
2020/12/26 06:08:20;;;;;;;1.08;0.50;;;21.70;33.20;;;;;;5002869;28;20038;-54
2020/12/26 06:10:54;;;;;;;1.33;0.60;;;21.80;33.20;;;;;;4981380;28;21769;-49
2020/12/26 06:13:22;;;;;;;0.68;0.50;;;21.80;33.20;;;;;;5003908;28;20026;-51
2020/12/26 06:15:50;;;;;;;1.17;0.52;;;21.70;33.10;;;;;;4998501;28;20042;-50
2020/12/26 06:18:19;;;;;;;1.45;0.75;;;21.70;33.10;;;;;;5035987;28;20139;-52
2020/12/26 06:20:45;;;;;;;0.95;0.45;;;21.70;33.20;;;;;;5027577;28;20169;-49
2020/12/26 06:23:22;;;;;;;0.88;0.50;;;21.80;33.20;;;;;;5034508;28;20037;-51
2020/12/26 06:25:49;;;;;;;1.98;0.80;;;21.70;33.20;;;;;;5019918;28;20034;-52
2020/12/26 06:28:25;;;;;;;1.30;0.60;;;21.80;33.40;;;;;;5033765;28;20028;-52
2020/12/26 06:30:53;;;;;;;0.60;0.50;;;21.70;33.40;;;;;;5033261;28;20029;-48
2020/12/26 06:33:23;;;;;;;0.77;0.50;;;21.70;33.40;;;;;;5035471;28;20118;-52
2020/12/26 06:35:50;;;;;;;1.50;0.65;;;21.70;33.30;;;;;;5031243;28;20025;-53
2020/12/26 06:38:18;;;;;;;1.50;0.68;;;21.70;33.30;;;;;;5035737;28;20044;-49
2020/12/26 06:40:59;;;;;;;1.40;0.60;;;21.70;33.30;;;;;;5017377;28;20056;-50
2020/12/26 06:43:40;;;;;;;1.42;0.70;;;21.70;33.30;;;;;;5024457;28;20033;-51
2020/12/26 06:46:31;;;;;;;1.23;0.60;;;21.70;33.20;;;;;;5031946;28;20030;-53
2020/12/26 06:48:58;;;;;;;1.08;0.73;;;21.70;33.20;;;;;;5027639;28;20042;-49
2020/12/26 06:51:34;;;;;;;0.70;0.55;;;21.70;33.20;;;;;;5031781;28;20033;-47
2020/12/26 06:54:07;;;;;;;1.05;0.40;;;21.70;33.20;;;;;;5028211;28;20433;-52
2020/12/26 06:56:35;;;;;;;0.88;0.50;;;21.60;33.10;;;;;;5034120;28;20044;-47
2020/12/26 06:59:05;;;;;;;1.13;0.52;;;21.60;33.10;;;;;;5025593;28;20044;-50
2020/12/26 07:01:32;;;;;;;1.00;0.47;;;21.70;33.20;;;;;;5025390;28;20464;-49
2020/12/26 07:04:17;;;;;;;2.05;0.70;;;21.60;33.10;;;;;;5023377;28;20438;-47
2020/12/26 07:06:54;;;;;;;1.55;0.80;;;21.60;33.10;;;;;;5022465;28;20453;-49
2020/12/26 07:09:45;;;;;;;0.93;0.47;;;21.60;33.10;;;;;;5031724;28;21552;-46
2020/12/26 07:12:13;;;;;;;0.60;0.45;;;21.60;33.20;;;;;;5024157;28;20045;-47
2020/12/26 07:14:43;;;;;;;2.53;0.85;;;21.60;33.20;;;;;;5017809;28;20018;-47
2020/12/26 07:17:14;;;;;;;0.88;0.60;;;21.60;33.20;;;;;;5018344;28;20432;-46
2020/12/26 07:19:51;;;;;;;1.92;0.70;;;21.60;33.20;;;;;;4997898;28;20344;-49
2020/12/26 07:22:28;;;;;;;2.15;0.65;;;21.60;33.10;;;;;;5004090;28;20037;-51
2020/12/26 07:25:05;;;;;;;0.45;0.40;;;21.60;33.20;;;;;;5015290;28;20034;-49
2020/12/26 07:27:32;;;;;;;1.98;0.60;;;21.60;33.90;;;;;;5012160;28;20030;-47
2020/12/26 07:30:09;;;;;;;1.63;0.70;;;21.60;33.20;;;;;;5012636;28;20345;-47
2020/12/26 07:32:48;;;;;;;1.42;0.68;;;21.60;33.20;;;;;;5002204;28;20042;-48
2020/12/26 07:35:14;;;;;;;1.38;0.70;;;21.60;33.20;;;;;;5011084;28;20061;-48
2020/12/26 07:37:54;;;;;;;0.93;0.60;;;21.60;33.20;;;;;;4999260;28;20084;-51
2020/12/26 07:40:22;;;;;;;1.30;0.60;;;21.60;33.20;;;;;;4995386;28;20401;-51
2020/12/26 07:42:49;;;;;;;0.85;0.52;;;21.50;33.20;;;;;;5005140;28;20122;-51
2020/12/26 07:45:16;;;;;;;2.28;0.75;;;21.50;33.20;;;;;;5006963;28;20481;-54
2020/12/26 07:47:47;;;;;;;1.65;0.77;;;21.50;33.50;;;;;;5029838;28;20029;-50
2020/12/26 07:50:15;;;;;;;0.52;0.50;;;21.50;34.10;;;;;;5003587;28;20037;-52
2020/12/26 07:52:55;;;;;;;0.70;0.57;;;21.50;34.00;;;;;;5020937;28;20411;-53
2020/12/26 07:55:22;;;;;;;1.55;0.60;;;21.50;34.00;;;;;;5006939;28;20073;-57
2020/12/26 07:57:48;;;;;;;1.23;0.60;;;21.60;34.40;;;;;;5012812;28;20057;-55
2020/12/26 08:00:24;;;;;;;1.25;0.60;;;21.60;34.60;;;;;;4995892;28;20096;-56
2020/12/26 08:02:57;;;;;;;1.65;0.95;;;21.70;34.80;;;;;;5004555;28;20366;-54
2020/12/26 08:05:28;;;;;;;0.50;0.35;;;21.70;34.80;;;;;;5000099;28;20065;-54
2020/12/26 08:07:54;;;;;;;2.65;0.50;;;21.80;34.90;;;;;;5008323;28;20048;-53
2020/12/26 08:10:20;;;;;;;2.72;0.60;;;21.90;34.90;;;;;;5010133;28;20038;-54
2020/12/26 08:12:57;;;;;;;1.02;0.60;;;21.90;34.90;;;;;;5011393;28;20429;-56
2020/12/26 08:15:31;;;;;;;0.88;0.45;;;22.00;34.70;;;;;;5012665;28;20038;-58
2020/12/26 08:17:58;;;;;;;1.80;0.82;;;22.00;34.60;;;;;;5000700;28;20061;-54
2020/12/26 08:20:27;;;;;;;1.35;0.45;;;22.10;34.50;;;;;;5010424;28;20030;-54
2020/12/26 08:22:53;;;;;;;1.35;0.60;;;22.20;34.50;;;;;;5002836;28;20483;-58
2020/12/26 08:25:22;;;;;;;1.00;0.55;;;22.30;34.50;;;;;;5004221;28;20354;-53
2020/12/26 08:27:48;;;;;;;0.88;0.60;;;22.40;34.50;;;;;;4994620;28;20041;-54
2020/12/26 08:30:18;;;;;;;0.85;0.50;;;22.50;34.40;;;;;;4997918;28;20327;-54
2020/12/26 08:33:21;;;;;;;1.70;0.63;;;22.60;35.00;;;;;;4999614;28;20046;-56
2020/12/26 08:36:12;;;;;;;0.35;0.35;;;22.70;34.20;;;;;;5002009;28;20037;-56
2020/12/26 08:38:45;;;;;;;0.47;0.40;;;22.80;34.10;;;;;;5003945;28;20413;-55
2020/12/26 08:41:12;;;;;;;1.10;0.50;;;22.80;33.90;;;;;;5017838;28;20042;-54
2020/12/26 08:43:39;;;;;;;0.75;0.50;;;22.90;33.90;;;;;;5015175;28;20026;-56
2020/12/26 08:46:13;;;;;;;0.77;0.45;;;23.00;33.90;;;;;;5017816;28;20030;-53
2020/12/26 08:48:41;;;;;;;1.00;0.50;;;23.00;33.80;;;;;;4982451;28;20520;-63
2020/12/26 08:51:18;;;;;;;2.63;0.57;;;23.10;33.80;;;;;;4999843;28;20044;-54
2020/12/26 08:53:45;;;;;;;3.65;0.75;;;23.10;33.60;;;;;;5002780;28;20030;-55
2020/12/26 08:56:11;;;;;;;1.50;0.55;;;23.20;33.60;;;;;;4997800;28;20066;-62
2020/12/26 08:58:37;;;;;;;1.65;0.60;;;23.20;33.50;;;;;;4981505;28;20037;-53
2020/12/26 09:01:04;;;;;;;1.67;0.77;;;23.20;33.30;;;;;;5001851;28;20357;-52
2020/12/26 09:03:35;;;;;;;2.65;0.70;;;23.30;33.40;;;;;;5017343;28;20065;-53
2020/12/26 09:06:02;;;;;;;1.33;0.77;;;23.30;33.20;;;;;;5001881;28;20437;-50
2020/12/26 09:08:33;;;;;;;1.05;0.60;;;23.40;33.10;;;;;;5009621;28;20030;-55
2020/12/26 09:11:07;;;;;;;1.15;0.65;;;23.50;33.00;;;;;;5005156;28;20038;-54
2020/12/26 09:13:49;;;;;;;2.10;0.63;;;23.40;32.70;;;;;;4999206;28;20034;-57
2020/12/26 09:16:15;;;;;;;1.45;0.80;;;23.50;32.60;;;;;;5004608;28;20516;-49
2020/12/26 09:18:44;;;;;;;1.70;0.77;;;23.50;32.60;;;;;;4998587;28;20030;-46
2020/12/26 09:21:21;;;;;;;1.67;0.50;;;23.50;32.60;;;;;;5015474;28;20115;-47
2020/12/26 09:23:48;;;;;;;1.58;0.60;;;23.50;32.40;;;;;;5011601;28;20026;-55
2020/12/26 09:26:22;;;;;;;2.50;0.80;;;23.60;32.30;;;;;;4999337;28;20061;-49
2020/12/26 09:28:55;;;;;;;1.08;0.65;;;23.60;32.10;;;;;;5016540;28;20091;-50
2020/12/26 09:31:36;;;;;;;1.65;0.70;;;23.60;32.00;;;;;;4997152;28;20045;-52
2020/12/26 09:34:23;;;;;;;1.55;0.70;;;23.60;31.80;;;;;;5010852;28;20029;-58
2020/12/26 09:37:07;;;;;;;1.50;0.68;;;23.60;31.70;;;;;;5005465;28;20034;-54
2020/12/26 09:39:33;;;;;;;1.83;0.80;;;23.50;31.60;;;;;;4998653;28;20496;-49
2020/12/26 09:41:59;;;;;;;1.38;0.90;;;23.50;31.50;;;;;;5015157;28;20129;-56
2020/12/26 09:44:25;;;;;;;1.10;0.65;;;23.50;31.50;;;;;;4997613;28;20049;-50
2020/12/26 09:47:04;;;;;;;1.98;0.70;;;23.60;31.40;;;;;;5016389;28;20030;-55
2020/12/26 09:49:30;;;;;;;1.60;0.85;;;23.50;31.30;;;;;;5008515;28;20042;-51
2020/12/26 09:51:56;;;;;;;1.08;0.50;;;23.50;31.30;;;;;;5000436;28;20387;-51
2020/12/26 09:54:22;;;;;;;1.65;0.93;;;23.50;31.20;;;;;;5015252;28;20030;-51
2020/12/26 09:56:48;;;;;;;1.25;0.70;;;23.50;31.20;;;;;;5015876;28;20088;-52
2020/12/26 09:59:14;;;;;;;1.10;0.60;;;23.50;31.10;;;;;;5023654;28;20021;-50
2020/12/26 10:01:40;;;;;;;1.95;0.73;;;23.60;31.10;;;;;;5027048;28;20065;-55
2020/12/26 10:04:05;;;;;;;1.00;0.60;;;23.50;31.10;;;;;;5017107;28;20065;-59
2020/12/26 10:06:32;;;;;;;2.25;0.57;;;23.50;31.20;;;;;;5015422;28;20025;-58
2020/12/26 10:08:58;;;;;;;1.52;0.60;;;23.50;31.30;;;;;;5013833;28;20033;-52
2020/12/26 10:11:24;;;;;;;1.25;0.82;;;23.50;31.30;;;;;;5015735;28;20034;-53
2020/12/26 10:13:50;;;;;;;1.48;0.73;;;23.60;31.40;;;;;;5014786;28;20429;-59
2020/12/26 10:16:17;;;;;;;2.17;0.90;;;23.60;31.40;;;;;;5016839;28;20095;-45
2020/12/26 10:18:43;;;;;;;1.58;0.60;;;23.60;31.50;;;;;;5034057;28;20350;-50
2020/12/26 10:21:09;;;;;;;3.25;1.00;;;23.60;31.50;;;;;;5014519;28;20486;-47
2020/12/26 10:23:35;;;;;;;1.50;0.60;;;23.60;31.70;;;;;;5034234;28;20037;-48
2020/12/26 10:26:05;;;;;;;1.92;1.02;;;23.60;31.80;;;;;;5025171;28;20350;-46
2020/12/26 10:28:31;;;;;;;1.35;0.80;;;23.60;32.10;;;;;;5036088;28;20491;-49
2020/12/26 10:30:56;;;;;;;2.90;0.85;;;23.60;32.40;;;;;;5035247;28;20495;-52
2020/12/26 10:33:22;;;;;;;0.98;0.60;;;23.70;32.90;;;;;;5016458;28;20041;-45
2020/12/26 10:35:48;;;;;;;1.27;0.80;;;23.80;33.40;;;;;;5032129;28;20029;-52
2020/12/26 10:38:14;;;;;;;1.50;0.70;;;23.90;33.70;;;;;;5031313;28;20419;-47
2020/12/26 10:40:40;;;;;;;1.65;0.90;;;24.10;34.10;;;;;;5015829;28;20061;-45
2020/12/26 10:43:06;;;;;;;1.35;0.88;;;24.20;34.40;;;;;;5025475;28;20048;-47
2020/12/26 10:45:31;;;;;;;2.00;0.55;;;24.30;34.70;;;;;;5022685;28;20044;-50
2020/12/26 10:47:57;;;;;;;1.52;0.73;;;24.40;34.90;;;;;;5025629;28;20539;-51
2020/12/26 10:50:23;;;;;;;2.17;0.68;;;24.50;35.00;;;;;;5035480;28;20345;-51
2020/12/26 10:52:48;;;;;;;1.48;0.60;;;24.70;35.20;;;;;;5018106;28;20038;-49
2020/12/26 10:55:15;;;;;;;1.23;0.70;;;24.80;35.20;;;;;;5015491;28;20076;-51
2020/12/26 10:57:42;;;;;;;1.58;0.60;;;25.00;35.30;;;;;;5023488;28;20091;-55
2020/12/26 11:00:09;;;;;;;1.65;0.77;;;25.10;35.30;;;;;;5034995;28;20030;-54
2020/12/26 11:02:35;;;;;;;1.15;0.60;;;25.20;35.20;;;;;;5034991;28;20125;-55
2020/12/26 11:05:00;;;;;;;0.88;0.52;;;25.30;35.20;;;;;;5027102;28;20069;-51
2020/12/26 11:07:26;;;;;;;1.00;0.60;;;25.50;35.20;;;;;;5035162;28;20156;-50
2020/12/26 11:09:52;;;;;;;0.85;0.60;;;25.60;35.20;;;;;;5025301;28;20044;-49
2020/12/26 11:12:17;;;;;;;1.13;0.50;;;25.60;35.00;;;;;;5015341;28;20034;-52
2020/12/26 11:14:43;;;;;;;0.90;0.50;;;25.70;35.00;;;;;;5016713;28;20033;-53
2020/12/26 11:17:09;;;;;;;1.23;0.60;;;25.80;34.80;;;;;;5023573;28;20060;-44
2020/12/26 11:19:35;;;;;;;0.80;0.57;;;25.90;34.90;;;;;;5002496;28;20356;-50
2020/12/26 11:22:00;;;;;;;1.25;0.75;;;25.90;34.90;;;;;;5015267;28;20137;-51
2020/12/26 11:24:26;;;;;;;1.58;0.50;;;26.00;34.80;;;;;;4993504;28;20484;-55
2020/12/26 11:26:52;;;;;;;1.92;0.60;;;26.10;34.80;;;;;;4995865;28;20035;-56
2020/12/26 11:29:18;;;;;;;0.63;0.57;;;26.10;34.70;;;;;;4981692;28;20022;-55
2020/12/26 11:31:43;;;;;;;1.42;0.80;;;26.20;34.60;;;;;;5015147;28;20361;-50
2020/12/26 11:34:11;;;;;;;1.90;0.77;;;26.20;34.50;;;;;;5011813;28;20030;-48
2020/12/26 11:36:38;;;;;;;1.25;0.85;;;26.30;34.50;;;;;;5015119;28;20038;-54
2020/12/26 11:39:04;;;;;;;1.92;0.93;;;26.30;34.40;;;;;;5003626;28;20037;-54
2020/12/26 11:41:30;;;;;;;2.25;1.00;;;26.30;34.30;;;;;;5014929;28;20042;-44
2020/12/26 11:43:57;;;;;;;2.17;1.20;;;26.30;34.30;;;;;;4997415;28;20038;-45
2020/12/26 11:46:23;;;;;;;1.55;0.70;;;26.20;34.30;;;;;;5000220;28;20049;-44
2020/12/26 11:48:50;;;;;;;2.03;0.77;;;26.20;34.50;;;;;;5007981;28;20034;-47
2020/12/26 11:51:16;;;;;;;1.75;0.80;;;26.10;34.70;;;;;;4995396;28;20026;-48
2020/12/26 11:53:41;;;;;;;2.65;0.90;;;26.10;35.00;;;;;;5004416;28;20022;-44
2020/12/26 11:56:12;;;;;;;1.42;0.80;;;26.00;35.10;;;;;;5002852;28;20029;-44
2020/12/26 11:58:38;;;;;;;0.88;0.63;;;26.00;34.90;;;;;;5000560;28;20057;-43
2020/12/26 12:01:05;;;;;;;2.25;0.80;;;25.90;34.50;;;;;;5000649;28;20042;-44
2020/12/26 12:03:32;;;;;;;1.33;0.60;;;25.90;33.80;;;;;;5000050;28;20108;-46
2020/12/26 12:05:58;;;;;;;1.15;0.68;;;25.90;33.20;;;;;;5010188;28;20346;-45
2020/12/26 12:08:24;;;;;;;1.08;0.73;;;25.90;32.80;;;;;;5014744;28;20352;-49
2020/12/26 12:10:49;;;;;;;2.10;0.85;;;25.80;32.50;;;;;;5013625;28;20022;-45
2020/12/26 12:13:15;;;;;;;1.00;0.60;;;25.80;32.20;;;;;;5000125;28;20088;-45
2020/12/26 12:15:41;;;;;;;2.40;0.60;;;25.80;32.00;;;;;;5004868;28;20358;-44
2020/12/26 12:18:08;;;;;;;2.60;0.80;;;25.80;31.90;;;;;;5005033;28;20101;-44
2020/12/26 12:20:34;;;;;;;0.90;0.50;;;25.80;31.80;;;;;;4999750;28;20104;-46
2020/12/26 12:23:00;;;;;;;1.58;0.60;;;25.70;32.20;;;;;;5008450;28;20049;-45
2020/12/26 12:25:27;;;;;;;1.95;0.60;;;25.80;31.60;;;;;;5008687;28;20532;-47
2020/12/26 12:27:54;;;;;;;1.23;0.65;;;25.70;31.40;;;;;;5012389;28;20049;-47
2020/12/26 12:30:21;;;;;;;1.08;0.70;;;25.70;31.60;;;;;;4998397;28;20113;-48
2020/12/26 12:32:47;;;;;;;1.48;0.65;;;25.70;31.50;;;;;;5004570;28;20026;-45
2020/12/26 12:35:13;;;;;;;2.38;0.82;;;25.70;31.40;;;;;;5004536;28;20026;-47
2020/12/26 12:37:44;;;;;;;1.10;0.63;;;25.70;31.30;;;;;;5010877;28;20025;-52
2020/12/26 12:40:10;;;;;;;1.67;0.70;;;25.70;31.20;;;;;;5001703;28;20091;-51
2020/12/26 12:42:38;;;;;;;1.20;0.60;;;25.70;31.10;;;;;;5011132;28;20092;-54
2020/12/26 12:45:05;;;;;;;1.40;0.73;;;25.70;31.00;;;;;;4985004;28;20125;-49
2020/12/26 12:47:35;;;;;;;1.23;0.70;;;25.70;30.90;;;;;;4999030;28;20058;-52
2020/12/26 12:50:08;;;;;;;0.73;0.45;;;25.70;30.80;;;;;;5004702;28;20036;-54
2020/12/26 12:52:35;;;;;;;1.58;0.82;;;25.70;30.80;;;;;;5003620;28;20041;-57